createdAt,value
2019-04-10T00:00:37.136Z,52.53
2019-04-10T00:03:06.200Z,51.03
2019-04-10T00:05:36.099Z,42.70
2019-04-10T00:08:06.027Z,51.27
2019-04-10T00:10:36.113Z,51.47
2019-04-10T00:13:04.788Z,52.50
2019-04-10T00:15:33.228Z,45.77
2019-04-10T00:18:01.948Z,50.90
2019-04-10T00:20:30.663Z,47.93
2019-04-10T00:22:59.104Z,53.57
2019-04-10T00:25:28.416Z,50.57
2019-04-10T00:27:57.047Z,52.93
2019-04-10T00:30:25.497Z,50.57
2019-04-10T00:32:54.451Z,51.47
2019-04-10T00:35:23.570Z,49.40
2019-04-10T00:37:52.130Z,49.47
2019-04-10T00:40:21.414Z,50.30
2019-04-10T00:42:49.946Z,46.60
2019-04-10T00:45:19.455Z,52.10
2019-04-10T00:47:47.936Z,46.43
2019-04-10T00:50:16.391Z,48.40
2019-04-10T00:52:44.818Z,48.07
2019-04-10T00:55:13.350Z,51.47
2019-04-10T00:57:41.784Z,50.67
2019-04-10T01:00:10.476Z,49.90
2019-04-10T01:02:39.195Z,50.20
2019-04-10T01:05:07.707Z,49.50
2019-04-10T01:07:39.567Z,52.50
2019-04-10T01:10:08.166Z,52.20
2019-04-10T01:12:36.759Z,50.73
2019-04-10T01:15:06.723Z,48.73
2019-04-10T01:17:35.309Z,46.93
2019-04-10T01:20:05.752Z,49.00
2019-04-10T01:22:35.046Z,48.30
2019-04-10T01:25:04.327Z,50.43
2019-04-10T01:27:32.759Z,46.83
2019-04-10T01:30:02.364Z,45.70
2019-04-10T01:32:32.745Z,44.83
2019-04-10T01:35:02.338Z,46.87
2019-04-10T01:37:30.993Z,47.10
2019-04-10T01:39:59.466Z,45.37
2019-04-10T01:42:28.384Z,45.60
2019-04-10T01:44:57.306Z,45.60
2019-04-10T01:47:26.854Z,40.77
2019-04-10T01:49:55.772Z,44.43
2019-04-10T01:52:24.817Z,42.70
2019-04-10T01:54:53.449Z,43.67
2019-04-10T01:57:22.021Z,42.20
2019-04-10T01:59:50.605Z,38.73
2019-04-10T02:02:32.372Z,34.07
2019-04-10T02:05:00.821Z,37.93
2019-04-10T02:07:29.927Z,36.30
2019-04-10T02:09:59.451Z,39.00
2019-04-10T02:12:28.401Z,35.80
2019-04-10T02:14:56.920Z,34.97
2019-04-10T02:17:26.264Z,33.50
2019-04-10T02:19:54.739Z,32.50
2019-04-10T02:22:23.190Z,34.73
2019-04-10T02:24:51.605Z,34.53
2019-04-10T02:27:20.420Z,33.07
2019-04-10T02:29:48.949Z,32.97
2019-04-10T02:32:18.978Z,35.07
2019-04-10T02:34:49.091Z,32.17
2019-04-10T02:37:19.127Z,36.10
2019-04-10T02:39:52.188Z,31.93
2019-04-10T02:42:18.673Z,32.47
2019-04-10T02:44:48.307Z,32.30
2019-04-10T02:47:19.019Z,34.77
2019-04-10T02:49:49.043Z,32.17
2019-04-10T02:52:17.719Z,33.23
2019-04-10T02:54:46.183Z,32.90
2019-04-10T02:57:14.674Z,32.57
2019-04-10T02:59:43.298Z,30.60
2019-04-10T03:02:13.889Z,32.43
2019-04-10T03:04:42.627Z,32.43
2019-04-10T03:07:11.778Z,30.43
2019-04-10T03:09:52.902Z,31.50
2019-04-10T03:12:12.577Z,30.80
2019-04-10T03:14:44.957Z,32.60
2019-04-10T03:17:12.248Z,32.20
2019-04-10T03:19:41.377Z,30.13
2019-04-10T03:22:10.506Z,28.83
2019-04-10T03:24:40.106Z,30.80
2019-04-10T03:27:08.674Z,30.70
2019-04-10T03:29:37.999Z,29.60
2019-04-10T03:32:31.130Z,29.07
2019-04-10T03:34:58.500Z,29.00
2019-04-10T03:37:27.032Z,29.20
2019-04-10T03:39:55.480Z,30.10
2019-04-10T03:42:23.900Z,29.90
2019-04-10T03:44:52.351Z,29.57
2019-04-10T03:47:20.775Z,26.60
2019-04-10T03:49:49.855Z,25.63
2019-04-10T03:52:19.001Z,25.50
2019-04-10T03:54:48.148Z,28.17
2019-04-10T03:57:16.659Z,26.20
2019-04-10T03:59:45.473Z,27.27
2019-04-10T04:02:13.971Z,27.10
2019-04-10T04:04:42.424Z,28.27
2019-04-10T04:07:11.303Z,24.63
2019-04-10T04:09:39.828Z,27.97
2019-04-10T04:12:08.461Z,27.30
2019-04-10T04:14:36.980Z,28.23
2019-04-10T04:17:06.098Z,27.83
2019-04-10T04:19:34.602Z,27.90
2019-04-10T04:22:03.979Z,26.27
2019-04-10T04:24:33.506Z,28.50
2019-04-10T04:27:02.750Z,24.50
2019-04-10T04:29:32.279Z,25.30
2019-04-10T04:32:01.210Z,26.20
2019-04-10T04:34:29.749Z,24.53
2019-04-10T04:36:58.211Z,19.83
2019-04-10T04:39:28.408Z,25.60
2019-04-10T04:41:56.795Z,25.77
2019-04-10T04:44:25.225Z,24.10
2019-04-10T04:46:53.730Z,24.10
2019-04-10T04:49:22.231Z,24.00
2019-04-10T04:51:50.697Z,25.17
2019-04-10T04:54:19.245Z,25.13
2019-04-10T04:56:48.373Z,23.73
2019-04-10T04:59:16.850Z,26.07
2019-04-10T05:01:45.275Z,24.07
2019-04-10T05:04:15.110Z,25.20
2019-04-10T05:06:43.788Z,27.37
2019-04-10T05:09:14.377Z,23.53
2019-04-10T05:11:42.666Z,27.77
2019-04-10T05:14:11.187Z,21.10
2019-04-10T05:16:39.619Z,25.77
2019-04-10T05:19:08.147Z,19.10
2019-04-10T05:21:37.274Z,24.93
2019-04-10T05:24:05.799Z,23.30
2019-04-10T05:26:34.341Z,23.60
2019-04-10T05:29:02.862Z,22.30
2019-04-10T05:31:32.183Z,23.50
2019-04-10T05:34:01.665Z,26.27
2019-04-10T05:36:30.093Z,24.87
2019-04-10T05:38:58.535Z,24.87
2019-04-10T05:41:26.972Z,22.13
2019-04-10T05:43:55.422Z,18.77
2019-04-10T05:46:24.873Z,15.40
2019-04-10T05:48:53.656Z,21.60
2019-04-10T05:51:23.252Z,22.33
2019-04-10T05:53:53.690Z,19.97
2019-04-10T05:56:22.483Z,21.57
2019-04-10T05:58:51.158Z,24.90
2019-04-10T06:01:30.533Z,21.00
2019-04-10T06:03:49.834Z,21.43
2019-04-10T06:06:18.284Z,17.33
2019-04-10T06:08:47.051Z,19.57
2019-04-10T06:11:15.599Z,22.07
2019-04-10T06:13:45.070Z,21.00
2019-04-10T06:16:13.661Z,17.40
2019-04-10T06:18:43.041Z,19.90
2019-04-10T06:21:12.556Z,17.57
2019-04-10T06:23:41.408Z,14.00
2019-04-10T06:26:10.231Z,10.70
2019-04-10T06:28:38.688Z,15.07
2019-04-10T06:31:08.278Z,14.50
2019-04-10T06:33:37.039Z,11.63
2019-04-10T06:36:05.457Z,12.50
2019-04-10T06:38:34.989Z,12.00
2019-04-10T06:41:03.511Z,12.23
2019-04-10T06:43:32.849Z,16.80
2019-04-10T06:46:01.461Z,13.00
2019-04-10T06:48:30.025Z,15.33
2019-04-10T06:50:58.512Z,17.83
2019-04-10T06:53:26.949Z,14.80
2019-04-10T06:55:56.465Z,16.53
2019-04-10T06:58:25.490Z,13.67
2019-04-10T07:00:55.282Z,16.50
2019-04-10T07:03:25.209Z,15.97
2019-04-10T07:06:06.371Z,16.00
2019-04-10T07:08:27.329Z,14.07
2019-04-10T07:11:02.594Z,16.77
2019-04-10T07:13:26.108Z,14.37
2019-04-10T07:15:57.765Z,14.43
2019-04-10T07:18:24.708Z,14.50
2019-04-10T07:20:57.225Z,14.23
2019-04-10T07:23:27.469Z,15.67
2019-04-10T07:25:54.834Z,15.27
2019-04-10T07:28:23.730Z,15.37
2019-04-10T07:30:56.838Z,15.60
2019-04-10T07:33:22.520Z,17.90
2019-04-10T07:35:53.741Z,17.30
2019-04-10T07:38:21.409Z,15.13
2019-04-10T07:40:51.239Z,16.90
2019-04-10T07:43:24.524Z,17.40
2019-04-10T07:45:49.930Z,17.20
2019-04-10T07:48:18.488Z,15.70
2019-04-10T07:50:47.519Z,15.37
2019-04-10T07:53:16.967Z,18.50
2019-04-10T07:55:57.535Z,16.60
2019-04-10T07:58:15.605Z,13.60
2019-04-10T08:00:44.875Z,14.00
2019-04-10T08:03:14.582Z,16.83
2019-04-10T08:05:44.039Z,13.80
2019-04-10T08:08:12.734Z,14.73
2019-04-10T08:10:42.691Z,12.80
2019-04-10T08:13:12.141Z,15.50
2019-04-10T08:15:41.230Z,13.40
2019-04-10T08:18:10.041Z,11.07
2019-04-10T08:20:38.639Z,13.77
2019-04-10T08:23:07.910Z,12.30
2019-04-10T08:25:37.380Z,13.80
2019-04-10T08:28:07.151Z,12.87
2019-04-10T08:30:36.296Z,11.97
2019-04-10T08:33:05.969Z,13.67
2019-04-10T08:35:35.664Z,6.77
2019-04-10T08:38:05.405Z,10.40
2019-04-10T08:40:34.260Z,9.57
2019-04-10T08:43:04.032Z,13.10
2019-04-10T08:45:40.075Z,12.93
2019-04-10T08:48:03.575Z,10.80
2019-04-10T08:50:32.306Z,12.53
2019-04-10T08:53:01.980Z,12.47
2019-04-10T08:55:30.609Z,11.90
2019-04-10T08:57:59.053Z,11.17
2019-04-10T09:00:28.825Z,10.20
2019-04-10T09:02:58.175Z,11.70
2019-04-10T09:05:27.812Z,11.40
2019-04-10T09:07:56.941Z,11.70
2019-04-10T09:10:26.037Z,12.47
2019-04-10T09:12:54.896Z,8.97
2019-04-10T09:15:25.641Z,11.40
2019-04-10T09:17:55.683Z,9.93
2019-04-10T09:20:24.807Z,7.73
2019-04-10T09:23:13.209Z,9.60
2019-04-10T09:25:23.571Z,11.03
2019-04-10T09:27:52.027Z,9.73
2019-04-10T09:30:20.545Z,10.03
2019-04-10T09:32:50.714Z,10.50
2019-04-10T09:35:20.336Z,10.67
2019-04-10T09:37:50.364Z,10.57
2019-04-10T09:40:18.974Z,10.23
2019-04-10T09:42:48.027Z,11.00
2019-04-10T09:45:17.539Z,11.07
2019-04-10T09:47:46.207Z,8.23
2019-04-10T09:50:15.109Z,10.97
2019-04-10T09:52:44.043Z,6.93
2019-04-10T09:55:13.771Z,10.97
2019-04-10T09:57:43.107Z,9.80
2019-04-10T10:00:12.046Z,10.57
2019-04-10T10:02:40.614Z,10.17
2019-04-10T10:05:09.198Z,10.90
2019-04-10T10:07:37.636Z,9.93
2019-04-10T10:10:08.577Z,9.50
2019-04-10T10:12:37.224Z,8.17
2019-04-10T10:15:07.509Z,7.50
2019-04-10T10:17:36.973Z,10.17
2019-04-10T10:20:07.928Z,11.07
2019-04-10T10:22:37.044Z,10.27
2019-04-10T10:25:08.996Z,11.30
2019-04-10T10:27:38.516Z,11.23
2019-04-10T10:30:09.551Z,10.43
2019-04-10T10:32:39.174Z,10.70
2019-04-10T10:35:09.167Z,10.87
2019-04-10T10:37:38.897Z,10.97
2019-04-10T10:40:08.856Z,11.43
2019-04-10T10:42:39.618Z,12.70
2019-04-10T10:45:10.454Z,8.83
2019-04-10T10:47:40.199Z,9.67
2019-04-10T10:50:09.807Z,11.33
2019-04-10T10:52:38.316Z,10.37
2019-04-10T10:55:07.623Z,9.97
2019-04-10T10:57:37.359Z,11.70
2019-04-10T11:00:08.340Z,10.00
2019-04-10T11:02:37.950Z,11.53
2019-04-10T11:05:07.211Z,11.80
2019-04-10T11:07:35.763Z,13.43
2019-04-10T11:10:06.806Z,11.43
2019-04-10T11:12:35.762Z,10.20
2019-04-10T11:15:05.920Z,11.00
2019-04-10T11:17:35.707Z,11.27
2019-04-10T11:20:08.084Z,9.33
2019-04-10T11:22:37.679Z,11.53
2019-04-10T11:25:06.551Z,11.73
2019-04-10T11:27:36.236Z,8.93
2019-04-10T11:30:08.251Z,13.93
2019-04-10T11:32:38.236Z,12.77
2019-04-10T11:35:07.660Z,13.43
2019-04-10T11:37:43.516Z,12.70
2019-04-10T11:40:08.523Z,12.23
2019-04-10T11:42:37.322Z,12.37
2019-04-10T11:45:10.270Z,13.13
2019-04-10T11:47:39.296Z,12.83
2019-04-10T11:50:12.993Z,14.37
2019-04-10T11:52:45.159Z,13.53
2019-04-10T11:55:15.587Z,15.60
2019-04-10T11:57:41.954Z,13.73
2019-04-10T12:00:17.058Z,15.70
2019-04-10T12:02:47.025Z,15.50
2019-04-10T12:05:18.479Z,12.67
2019-04-10T12:08:21.002Z,15.47
2019-04-10T12:12:43.889Z,14.27
2019-04-10T12:15:12.500Z,15.30
2019-04-10T12:17:40.948Z,16.63
2019-04-10T12:20:09.392Z,13.30
2019-04-10T12:22:38.204Z,16.30
2019-04-10T12:25:06.950Z,16.63
2019-04-10T12:27:35.540Z,12.63
2019-04-10T12:30:06.921Z,17.73
2019-04-10T12:32:35.382Z,15.83
2019-04-10T12:35:06.740Z,18.10
2019-04-10T12:37:35.358Z,15.00
2019-04-10T12:40:05.550Z,16.40
2019-04-10T12:42:34.546Z,15.90
2019-04-10T12:45:04.866Z,19.37
2019-04-10T12:47:34.275Z,17.90
2019-04-10T12:50:03.770Z,13.10
2019-04-10T12:52:32.418Z,15.67
2019-04-10T12:55:01.967Z,17.50
2019-04-10T12:57:30.740Z,14.00
2019-04-10T13:00:02.966Z,18.23
2019-04-10T13:02:30.311Z,14.13
2019-04-10T13:04:58.833Z,12.30
2019-04-10T13:07:27.598Z,16.70
2019-04-10T13:09:56.092Z,15.13
2019-04-10T13:12:25.050Z,12.27
2019-04-10T13:14:53.550Z,13.47
2019-04-10T13:17:22.713Z,17.27
2019-04-10T13:19:51.420Z,16.37
2019-04-10T13:22:20.156Z,15.63
2019-04-10T13:24:48.573Z,13.30
2019-04-10T13:27:16.995Z,12.60
2019-04-10T13:29:45.448Z,15.77
2019-04-10T13:32:13.953Z,13.87
2019-04-10T13:34:43.620Z,16.47
2019-04-10T13:37:12.437Z,16.40
2019-04-10T13:39:41.357Z,15.60
2019-04-10T13:42:09.811Z,17.80
2019-04-10T13:44:38.435Z,18.27
2019-04-10T13:47:07.158Z,14.97
2019-04-10T13:49:35.757Z,13.07
2019-04-10T13:52:04.206Z,14.70
2019-04-10T13:54:32.661Z,15.53
2019-04-10T13:57:01.521Z,16.67
2019-04-10T13:59:31.070Z,18.90
2019-04-10T14:02:00.620Z,16.93
2019-04-10T14:04:29.259Z,18.23
2019-04-10T14:06:58.292Z,16.03
2019-04-10T14:09:35.901Z,16.03
2019-04-10T14:11:57.594Z,17.30
2019-04-10T14:14:26.695Z,15.53
2019-04-10T14:16:55.220Z,15.97
2019-04-10T14:19:23.718Z,16.00
2019-04-10T14:21:53.374Z,15.73
2019-04-10T14:24:22.050Z,16.67
2019-04-10T14:26:53.769Z,17.20
2019-04-10T14:29:22.620Z,13.73
2019-04-10T14:31:53.206Z,16.93
2019-04-10T14:34:22.746Z,16.27
2019-04-10T14:36:51.339Z,16.70
2019-04-10T14:39:21.292Z,16.57
2019-04-10T14:41:50.023Z,18.60
2019-04-10T14:44:18.476Z,16.80
2019-04-10T14:46:46.976Z,14.80
2019-04-10T14:49:16.684Z,17.20
2019-04-10T14:51:46.132Z,16.13
2019-04-10T14:54:15.557Z,19.00
2019-04-10T14:56:44.213Z,12.17
2019-04-10T14:59:12.780Z,17.87
2019-04-10T15:01:42.041Z,17.10
2019-04-10T15:04:10.971Z,19.50
2019-04-10T15:06:39.655Z,19.47
2019-04-10T15:09:23.245Z,19.23
2019-04-10T15:11:46.843Z,18.50
2019-04-10T15:14:15.351Z,19.10
2019-04-10T15:16:52.985Z,14.93
2019-04-10T15:19:14.235Z,19.47
2019-04-10T15:21:43.049Z,18.90
2019-04-10T15:24:11.564Z,17.37
2019-04-10T15:26:40.410Z,20.00
2019-04-10T15:29:08.936Z,18.27
2019-04-10T15:31:37.566Z,18.83
2019-04-10T15:34:06.178Z,15.10
2019-04-10T15:36:34.628Z,19.40
2019-04-10T15:39:04.691Z,18.97
2019-04-10T15:41:33.172Z,16.03
2019-04-10T15:44:01.637Z,16.07
2019-04-10T15:46:30.208Z,18.00
2019-04-10T15:49:00.504Z,14.27
2019-04-10T15:51:29.952Z,17.50
2019-04-10T15:53:59.121Z,19.33
2019-04-10T15:56:27.714Z,16.37
2019-04-10T15:58:56.860Z,16.53
2019-04-10T16:01:28.356Z,16.87
2019-04-10T16:03:56.519Z,16.50
2019-04-10T16:06:25.116Z,16.93
2019-04-10T16:08:53.578Z,15.07
2019-04-10T16:11:32.394Z,16.53
2019-04-10T16:14:03.123Z,16.20
2019-04-10T16:16:34.463Z,15.77
2019-04-10T16:19:10.512Z,15.20
2019-04-10T16:21:39.047Z,17.10
2019-04-10T16:24:09.146Z,11.87
2019-04-10T16:26:39.027Z,14.50
2019-04-10T16:29:07.803Z,17.27
2019-04-10T16:31:37.677Z,17.73
2019-04-10T16:34:07.274Z,16.63
2019-04-10T16:36:35.802Z,18.17
2019-04-10T16:39:07.323Z,11.23
2019-04-10T16:41:37.565Z,16.30
2019-04-10T16:44:06.124Z,17.40
2019-04-10T16:46:34.816Z,12.17
2019-04-10T16:49:04.354Z,14.67
2019-04-10T16:51:32.871Z,11.10
2019-04-10T16:54:02.265Z,13.90
2019-04-10T16:56:31.778Z,14.10
2019-04-10T16:59:00.533Z,13.07
2019-04-10T17:01:29.007Z,15.50
2019-04-10T17:03:58.544Z,14.87
2019-04-10T17:06:28.066Z,12.50
2019-04-10T17:08:56.683Z,14.97
2019-04-10T17:11:25.209Z,15.97
2019-04-10T17:13:53.663Z,15.77
2019-04-10T17:16:22.168Z,16.87
2019-04-10T17:18:51.616Z,15.27
2019-04-10T17:21:21.364Z,15.40
2019-04-10T17:23:51.035Z,13.60
2019-04-10T17:26:19.572Z,13.40
2019-04-10T17:28:48.380Z,12.90
2019-04-10T17:31:18.154Z,12.20
2019-04-10T17:33:46.872Z,14.43
2019-04-10T17:36:15.384Z,12.20
2019-04-10T17:38:44.925Z,14.27
2019-04-10T17:41:13.489Z,10.90
2019-04-10T17:43:43.351Z,12.47
2019-04-10T17:46:13.144Z,12.17
2019-04-10T17:48:42.046Z,14.50
2019-04-10T17:51:11.956Z,13.37
2019-04-10T17:53:41.874Z,13.10
2019-04-10T17:56:11.513Z,13.20
2019-04-10T17:58:41.386Z,15.13
2019-04-10T18:01:14.009Z,13.57
2019-04-10T18:03:50.459Z,10.80
2019-04-10T18:06:12.812Z,12.80
2019-04-10T18:08:41.277Z,9.23
2019-04-10T18:11:09.983Z,13.53
2019-04-10T18:13:38.539Z,8.60
2019-04-10T18:16:07.100Z,13.17
2019-04-10T18:18:35.940Z,13.20
2019-04-10T18:21:04.662Z,12.27
2019-04-10T18:23:34.047Z,12.30
2019-04-10T18:26:02.571Z,11.20
2019-04-10T18:28:33.262Z,11.43
2019-04-10T18:31:01.175Z,13.03
2019-04-10T18:33:30.757Z,13.10
2019-04-10T18:35:59.498Z,13.90
2019-04-10T18:38:28.030Z,15.67
2019-04-10T18:41:03.394Z,15.40
2019-04-10T18:43:28.656Z,13.60
2019-04-10T18:46:06.098Z,12.00
2019-04-10T18:48:27.227Z,13.73
2019-04-10T18:50:55.691Z,13.43
2019-04-10T18:53:24.761Z,11.73
2019-04-10T18:55:54.395Z,9.90
2019-04-10T18:58:27.622Z,11.50
2019-04-10T19:01:03.702Z,9.27
2019-04-10T19:03:45.069Z,10.43
2019-04-10T19:06:05.815Z,11.53
2019-04-10T19:08:35.601Z,11.67
2019-04-10T19:11:16.870Z,8.37
2019-04-10T19:13:34.794Z,11.00
2019-04-10T19:16:03.490Z,8.47
2019-04-10T19:18:32.196Z,10.30
2019-04-10T19:21:00.704Z,11.27
2019-04-10T19:23:29.201Z,10.93
2019-04-10T19:25:58.774Z,10.00
2019-04-10T19:28:30.317Z,10.40
2019-04-10T19:31:08.626Z,10.50
2019-04-10T19:33:29.281Z,9.40
2019-04-10T19:35:57.720Z,10.57
2019-04-10T19:38:27.382Z,9.83
2019-04-10T19:40:56.336Z,7.70
2019-04-10T19:43:27.471Z,7.10
2019-04-10T19:45:56.295Z,8.87
2019-04-10T19:48:25.491Z,9.20
2019-04-10T19:50:53.966Z,9.27
2019-04-10T19:53:22.449Z,9.10
2019-04-10T19:55:51.760Z,8.33
2019-04-10T19:58:20.306Z,8.70
2019-04-10T20:00:49.157Z,6.83
2019-04-10T20:03:17.600Z,8.60
2019-04-10T20:05:46.226Z,6.13
2019-04-10T20:08:15.460Z,5.40
2019-04-10T20:10:43.975Z,6.60
2019-04-10T20:13:12.400Z,8.20
2019-04-10T20:15:40.890Z,7.70
2019-04-10T20:18:10.600Z,6.33
2019-04-10T20:20:39.479Z,6.70
2019-04-10T20:23:07.986Z,6.40
2019-04-10T20:25:36.835Z,7.33
2019-04-10T20:28:05.299Z,8.00
2019-04-10T20:30:34.961Z,6.10
2019-04-10T20:33:03.502Z,7.30
2019-04-10T20:35:32.085Z,7.30
2019-04-10T20:38:01.509Z,7.73
2019-04-10T20:40:30.229Z,6.00
2019-04-10T20:42:58.655Z,7.50
2019-04-10T20:45:27.074Z,7.73
2019-04-10T20:47:56.124Z,7.13
2019-04-10T20:50:25.894Z,6.43
2019-04-10T20:52:55.712Z,7.17
2019-04-10T20:55:24.255Z,6.97
2019-04-10T20:57:52.788Z,6.90
2019-04-10T21:00:22.842Z,7.63
2019-04-10T21:02:51.285Z,4.60
2019-04-10T21:05:19.890Z,5.83
2019-04-10T21:07:48.341Z,5.60
2019-04-10T21:10:17.142Z,7.70
2019-04-10T21:12:45.668Z,7.90
2019-04-10T21:15:14.178Z,6.13
2019-04-10T21:17:42.627Z,7.60
2019-04-10T21:20:13.226Z,9.40
2019-04-10T21:22:41.400Z,8.37
2019-04-10T21:25:10.318Z,8.83
2019-04-10T21:27:39.776Z,8.07
2019-04-10T21:30:12.935Z,8.20
2019-04-10T21:32:49.994Z,9.00
2019-04-10T21:35:20.862Z,5.90
2019-04-10T21:37:49.354Z,8.47
2019-04-10T21:40:18.682Z,10.57
2019-04-10T21:42:47.604Z,8.33
2019-04-10T21:45:16.126Z,7.80
2019-04-10T21:47:44.574Z,8.07
2019-04-10T21:50:13.407Z,8.87
2019-04-10T21:52:43.480Z,7.20
2019-04-10T21:55:12.909Z,8.83
2019-04-10T21:57:42.476Z,8.40
2019-04-10T22:00:12.275Z,7.97
2019-04-10T22:02:40.801Z,8.50
2019-04-10T22:05:12.362Z,9.97
2019-04-10T22:07:48.357Z,8.20
2019-04-10T22:10:28.073Z,8.90
2019-04-10T22:12:57.451Z,8.03
2019-04-10T22:15:28.771Z,9.10
2019-04-10T22:17:57.407Z,10.27
2019-04-10T22:20:25.839Z,9.57
2019-04-10T22:22:55.443Z,9.37
2019-04-10T22:25:23.966Z,9.07
2019-04-10T22:27:52.395Z,6.90
2019-04-10T22:30:21.100Z,8.80
2019-04-10T22:32:49.557Z,10.07
2019-04-10T22:35:17.998Z,9.67
2019-04-10T22:37:46.419Z,10.30
2019-04-10T22:40:15.302Z,9.53
2019-04-10T22:42:46.743Z,10.13
2019-04-10T22:45:29.249Z,8.60
2019-04-10T22:48:00.517Z,10.07
2019-04-10T22:50:29.254Z,10.70
2019-04-10T22:52:59.101Z,10.07
2019-04-10T22:55:28.106Z,8.90
2019-04-10T22:57:56.949Z,9.63
2019-04-10T23:00:28.002Z,9.70
2019-04-10T23:02:57.276Z,9.50
2019-04-10T23:05:26.797Z,9.40
2019-04-10T23:07:55.615Z,8.33
2019-04-10T23:10:24.806Z,9.73
2019-04-10T23:13:00.047Z,8.57
2019-04-10T23:15:23.504Z,9.60
2019-04-10T23:17:52.838Z,9.50
2019-04-10T23:20:21.360Z,9.30
2019-04-10T23:22:50.646Z,9.30
2019-04-10T23:25:20.400Z,8.50
2019-04-10T23:27:52.002Z,8.70
2019-04-10T23:30:19.933Z,8.17
2019-04-10T23:32:48.831Z,8.83
2019-04-10T23:35:17.414Z,8.10
2019-04-10T23:37:46.884Z,10.33
2019-04-10T23:40:15.451Z,8.20
2019-04-10T23:42:44.225Z,9.80
2019-04-10T23:45:13.502Z,9.23
2019-04-10T23:47:42.343Z,9.30
2019-04-10T23:50:12.101Z,9.17
2019-04-10T23:52:40.654Z,8.83
2019-04-10T23:55:10.091Z,8.33
2019-04-10T23:57:38.634Z,9.30
